AirNav   Air Wisconsin Up To $57,000 Bonus
 
 1359 users online  

5ND3 Craig Private Airport
Bathgate, North Dakota, USA

GOING TO BATHGATE?


FAA INFORMATION EFFECTIVE 19 MAY 2022

Location

FAA Identifier: 5ND3
Lat/Long: 48-51-19.9570N 097-19-19.2620W
48-51.332617N 097-19.321033W
48.8555436,-97.3220172
(estimated)
Elevation: 800 ft. / 244 m (estimated)
Variation: 06E (1985)
From city: 7 miles SE of BATHGATE, ND
Time zone: UTC -5 (UTC -6 during Standard Time)
Zip code: 58216

Airport Operations

Airport use: Private use. Permission required prior to landing
Activation date: 01/1976
Control tower: no
ARTCC: MINNEAPOLIS CENTER
FSS: GRAND FORKS FLIGHT SERVICE STATION
Attendance: UNATNDD
Wind indicator: yes
Segmented circle: no

Airport Communications

WX AWOS-3 at 2C8 (13 nm W): 118.275 (701-265-8050)
WX AWOS-3 at HCO (16 nm E): 126.475 (218-843-2415)

Airport Services

Runway Information

Runway 15/33

Dimensions: 1600 x 40 ft. / 488 x 12 m
Surface: dirt
RUNWAY 15  RUNWAY 33
Traffic pattern: leftleft

Runway 18/36

Dimensions: 1600 x 40 ft. / 488 x 12 m
Surface: dirt
RUNWAY 18  RUNWAY 36
Traffic pattern: leftleft
Obstructions: 50 ft. treesnone

Airport Ownership and Management from official FAA records

Ownership: Privately-owned
Owner: DAVE CRAIG
15482 100TH STREET NE
BATHGATE, ND 58216-9628
Phone 701-520-2457
Manager: DAVE CRAIG
15482 100TH STREET NE
BATHGATE, ND 58216-9628
Phone 701-520-2457

Airport Operational Statistics

Aircraft based on the field: 2
Single engine airplanes: 2
    

Additional Remarks

FOR CD CTC MINNEAPOLIS ARTCC AT 651-463-5588.

Instrument Procedures

There are no published instrument procedures at 5ND3.

Some nearby airports with instrument procedures:

KPMB - Pembina Municipal Airport (6 nm NE)
2C8 - Cavalier Municipal Airport (13 nm W)
KHCO - Hallock Municipal Airport (16 nm E)
96D - Walhalla Municipal Airport (23 nm W)
KGAF - Hutson Field Airport (27 nm S)
 
Loc | Ops | Rwys | IFR | FBO | Links
Com | Nav | Svcs | Stats | Notes

Bismarck Aero Center
AirBoss

 
Area around 5ND3 (Craig Private Airport)
 
Road maps at: MapQuest Bing Google
 
Aerial photo
No photo
 
Sectional chart

 
Airport distance calculator
Flying to Craig Private Airport? Find the distance to fly.

From to 5ND3

Sunrise and sunset
Times for 27-May-2022
 Local
(UTC-5)
 Zulu
(UTC)
Morning civil twilight04:5509:55
Sunrise05:3510:35
Sunset21:1802:18
Evening civil twilight21:5802:58

Current date and time
Zulu (UTC)  27-May-2022 21:18:23
Local (UTC-5)  27-May-2022 16:18:23
 
METAR
K2C8 
13nm W 
272055Z AUTO 00000KT 10SM CLR 26/06 A2978 RMK AO2
KHCO 
17nm E 
272055Z AUTO 04004KT 10SM CLR 26/03 A2978 RMK AO2
K96D 
23nm W 
272055Z AUTO VRB05G11KT 10SM CLR 25/07 A2978 RMK AO2
TAF
NOTAMs
Click for the latest NOTAMs
NOTAMs are issued by the DoD/FAA and will open in a separate window not controlled by AirNav.

 

 
 

Would you like to see your business listed on this page?

 If your business provides an interesting product or service to pilots, flight crews, aircraft, or users of the Craig Private Airport, you should consider listing it here.  To start the listing process, click on the button below
 
Add a business
 

Other Pages about Craig Private Airport

Update a link
 
Copyright © AirNav, LLC. All rights reserved. Privacy Policy  Contact